sensor_id;sensor_type;location;lat;lon;timestamp;pressure;altitude;pressure_sealevel;temperature;humidity
5595;BME280;1003;48.002;7.788;2023-08-06T00:02:12;98349.41;;;16.48;100.00
5595;BME280;1003;48.002;7.788;2023-08-06T00:04:39;98347.59;;;16.33;100.00
5595;BME280;1003;48.002;7.788;2023-08-06T00:07:07;98345.34;;;16.26;100.00
5595;BME280;1003;48.002;7.788;2023-08-06T00:09:34;98354.38;;;16.13;100.00
5595;BME280;1003;48.002;7.788;2023-08-06T00:12:01;98347.47;;;15.98;100.00
5595;BME280;1003;48.002;7.788;2023-08-06T00:14:28;98284.47;;;15.90;100.00
5595;BME280;1003;48.002;7.788;2023-08-06T00:16:55;98259.88;;;15.92;100.00
5595;BME280;1003;48.002;7.788;2023-08-06T00:19:22;98265.31;;;15.85;100.00
5595;BME280;1003;48.002;7.788;2023-08-06T00:21:49;98159.09;;;15.80;100.00
5595;BME280;1003;48.002;7.788;2023-08-06T00:24:18;98155.16;;;15.74;100.00
5595;BME280;1003;48.002;7.788;2023-08-06T00:26:45;98136.97;;;15.66;100.00
5595;BME280;1003;48.002;7.788;2023-08-06T00:29:12;98125.94;;;15.67;100.00
5595;BME280;1003;48.002;7.788;2023-08-06T00:31:39;98126.69;;;15.69;100.00
5595;BME280;1003;48.002;7.788;2023-08-06T00:34:06;98124.97;;;15.70;100.00
5595;BME280;1003;48.002;7.788;2023-08-06T00:36:33;98124.03;;;15.72;100.00
5595;BME280;1003;48.002;7.788;2023-08-06T00:39:01;98113.28;;;15.67;100.00
5595;BME280;1003;48.002;7.788;2023-08-06T00:41:30;98107.19;;;15.71;100.00
5595;BME280;1003;48.002;7.788;2023-08-06T00:43:57;98093.97;;;15.65;100.00
5595;BME280;1003;48.002;7.788;2023-08-06T00:46:24;98090.63;;;15.64;100.00
5595;BME280;1003;48.002;7.788;2023-08-06T00:48:51;98084.09;;;15.59;100.00
5595;BME280;1003;48.002;7.788;2023-08-06T00:51:20;98097.97;;;15.52;100.00
5595;BME280;1003;48.002;7.788;2023-08-06T00:53:48;98102.44;;;15.46;100.00
5595;BME280;1003;48.002;7.788;2023-08-06T00:56:16;98094.22;;;15.41;100.00
5595;BME280;1003;48.002;7.788;2023-08-06T00:58:46;98088.44;;;15.39;100.00
5595;BME280;1003;48.002;7.788;2023-08-06T01:01:24;98076.63;;;15.38;100.00
5595;BME280;1003;48.002;7.788;2023-08-06T01:03:51;98083.81;;;15.47;100.00
5595;BME280;1003;48.002;7.788;2023-08-06T01:06:23;98082.84;;;15.50;100.00
5595;BME280;1003;48.002;7.788;2023-08-06T01:09:03;98076.59;;;15.57;100.00
5595;BME280;1003;48.002;7.788;2023-08-06T01:11:47;98087.28;;;15.64;100.00
5595;BME280;1003;48.002;7.788;2023-08-06T01:14:28;98085.81;;;15.77;100.00
5595;BME280;1003;48.002;7.788;2023-08-06T01:16:59;98079.75;;;15.80;100.00
5595;BME280;1003;48.002;7.788;2023-08-06T01:19:28;98092.28;;;15.83;100.00
5595;BME280;1003;48.002;7.788;2023-08-06T01:21:56;98093.84;;;15.85;100.00
5595;BME280;1003;48.002;7.788;2023-08-06T01:24:23;98097.94;;;15.88;100.00
5595;BME280;1003;48.002;7.788;2023-08-06T01:26:58;98093.47;;;15.93;100.00
5595;BME280;1003;48.002;7.788;2023-08-06T01:29:35;98092.50;;;15.95;100.00
5595;BME280;1003;48.002;7.788;2023-08-06T01:32:05;98094.63;;;16.03;100.00
5595;BME280;1003;48.002;7.788;2023-08-06T01:34:34;98091.97;;;16.06;100.00
5595;BME280;1003;48.002;7.788;2023-08-06T01:37:04;98086.66;;;16.11;100.00
5595;BME280;1003;48.002;7.788;2023-08-06T01:39:33;98075.53;;;16.13;100.00
5595;BME280;1003;48.002;7.788;2023-08-06T01:42:00;98070.63;;;16.10;100.00
5595;BME280;1003;48.002;7.788;2023-08-06T01:44:27;98069.22;;;16.05;100.00
5595;BME280;1003;48.002;7.788;2023-08-06T01:46:55;98074.31;;;16.05;100.00
5595;BME280;1003;48.002;7.788;2023-08-06T01:49:22;98078.25;;;16.10;100.00
5595;BME280;1003;48.002;7.788;2023-08-06T01:51:49;98082.41;;;16.11;100.00
5595;BME280;1003;48.002;7.788;2023-08-06T01:54:17;98090.84;;;16.12;100.00
5595;BME280;1003;48.002;7.788;2023-08-06T01:56:44;98087.31;;;16.14;100.00
5595;BME280;1003;48.002;7.788;2023-08-06T01:59:11;98093.94;;;16.17;100.00
5595;BME280;1003;48.002;7.788;2023-08-06T02:01:38;98099.69;;;16.20;100.00
5595;BME280;1003;48.002;7.788;2023-08-06T02:04:05;98096.34;;;16.20;100.00
5595;BME280;1003;48.002;7.788;2023-08-06T02:06:32;98092.97;;;16.19;100.00
5595;BME280;1003;48.002;7.788;2023-08-06T02:08:59;98091.56;;;16.14;100.00
5595;BME280;1003;48.002;7.788;2023-08-06T02:11:27;98082.50;;;16.10;100.00
5595;BME280;1003;48.002;7.788;2023-08-06T02:13:54;98076.75;;;16.06;100.00
5595;BME280;1003;48.002;7.788;2023-08-06T02:16:21;98075.47;;;15.97;100.00
5595;BME280;1003;48.002;7.788;2023-08-06T02:18:48;98067.16;;;15.95;100.00
5595;BME280;1003;48.002;7.788;2023-08-06T02:21:15;98066.69;;;15.87;100.00
5595;BME280;1003;48.002;7.788;2023-08-06T02:23:45;98058.44;;;15.84;100.00
5595;BME280;1003;48.002;7.788;2023-08-06T02:26:15;98057.09;;;15.77;100.00
5595;BME280;1003;48.002;7.788;2023-08-06T02:28:44;98056.75;;;15.67;100.00
5595;BME280;1003;48.002;7.788;2023-08-06T02:31:11;98041.53;;;15.67;100.00
5595;BME280;1003;48.002;7.788;2023-08-06T02:33:38;98051.69;;;15.67;100.00
5595;BME280;1003;48.002;7.788;2023-08-06T02:36:05;98047.34;;;15.69;100.00
5595;BME280;1003;48.002;7.788;2023-08-06T02:38:32;98016.94;;;15.69;100.00
5595;BME280;1003;48.002;7.788;2023-08-06T02:41:02;98004.44;;;15.66;100.00
5595;BME280;1003;48.002;7.788;2023-08-06T02:43:30;97997.19;;;15.58;100.00
5595;BME280;1003;48.002;7.788;2023-08-06T02:45:59;97978.19;;;15.49;100.00
5595;BME280;1003;48.002;7.788;2023-08-06T02:48:26;97968.06;;;15.49;100.00
5595;BME280;1003;48.002;7.788;2023-08-06T02:50:57;97961.44;;;15.47;100.00
5595;BME280;1003;48.002;7.788;2023-08-06T02:53:25;97953.13;;;15.45;100.00
5595;BME280;1003;48.002;7.788;2023-08-06T02:55:52;97949.09;;;15.41;100.00
5595;BME280;1003;48.002;7.788;2023-08-06T02:58:19;97949.75;;;15.44;100.00
5595;BME280;1003;48.002;7.788;2023-08-06T03:01:01;97940.09;;;15.35;100.00
5595;BME280;1003;48.002;7.788;2023-08-06T03:03:29;97567.56;;;15.27;100.00
5595;BME280;1003;48.002;7.788;2023-08-06T03:05:56;97507.16;;;15.21;100.00
5595;BME280;1003;48.002;7.788;2023-08-06T03:08:23;97518.13;;;15.06;100.00
5595;BME280;1003;48.002;7.788;2023-08-06T03:10:50;97516.97;;;14.95;100.00
5595;BME280;1003;48.002;7.788;2023-08-06T03:13:18;97515.69;;;14.88;100.00
5595;BME280;1003;48.002;7.788;2023-08-06T03:15:52;97518.41;;;14.85;100.00
5595;BME280;1003;48.002;7.788;2023-08-06T03:18:21;97900.41;;;14.84;100.00
5595;BME280;1003;48.002;7.788;2023-08-06T03:20:49;97906.94;;;14.70;100.00
5595;BME280;1003;48.002;7.788;2023-08-06T03:23:16;97913.78;;;14.68;100.00
5595;BME280;1003;48.002;7.788;2023-08-06T03:25:43;97912.13;;;14.67;100.00
5595;BME280;1003;48.002;7.788;2023-08-06T03:28:10;97924.38;;;14.58;100.00
5595;BME280;1003;48.002;7.788;2023-08-06T03:30:38;97915.72;;;14.44;100.00
5595;BME280;1003;48.002;7.788;2023-08-06T03:33:05;97907.41;;;14.42;100.00
5595;BME280;1003;48.002;7.788;2023-08-06T03:35:33;97908.53;;;14.35;100.00
5595;BME280;1003;48.002;7.788;2023-08-06T03:38:00;97915.31;;;14.35;100.00
5595;BME280;1003;48.002;7.788;2023-08-06T03:40:27;97904.50;;;14.31;100.00
5595;BME280;1003;48.002;7.788;2023-08-06T03:42:54;97907.94;;;14.30;100.00
5595;BME280;1003;48.002;7.788;2023-08-06T03:45:21;97912.47;;;14.24;100.00
5595;BME280;1003;48.002;7.788;2023-08-06T03:47:48;97916.91;;;14.18;100.00
5595;BME280;1003;48.002;7.788;2023-08-06T03:50:16;97913.00;;;14.11;100.00
5595;BME280;1003;48.002;7.788;2023-08-06T03:52:44;97908.53;;;13.99;100.00
5595;BME280;1003;48.002;7.788;2023-08-06T03:55:11;97918.25;;;13.88;100.00
5595;BME280;1003;48.002;7.788;2023-08-06T03:57:38;97915.25;;;13.80;100.00
5595;BME280;1003;48.002;7.788;2023-08-06T04:00:07;97922.78;;;13.61;100.00
5595;BME280;1003;48.002;7.788;2023-08-06T04:02:34;97923.81;;;13.57;100.00
5595;BME280;1003;48.002;7.788;2023-08-06T04:05:01;97936.47;;;13.55;100.00
5595;BME280;1003;48.002;7.788;2023-08-06T04:07:28;97941.50;;;13.57;100.00
5595;BME280;1003;48.002;7.788;2023-08-06T04:09:58;97946.72;;;13.52;100.00
5595;BME280;1003;48.002;7.788;2023-08-06T04:12:26;97944.75;;;13.59;100.00
5595;BME280;1003;48.002;7.788;2023-08-06T04:14:54;97956.94;;;13.70;100.00
5595;BME280;1003;48.002;7.788;2023-08-06T04:17:21;97963.41;;;13.75;100.00
5595;BME280;1003;48.002;7.788;2023-08-06T04:19:51;97958.44;;;13.74;100.00
5595;BME280;1003;48.002;7.788;2023-08-06T04:22:19;97960.78;;;13.78;100.00
5595;BME280;1003;48.002;7.788;2023-08-06T04:24:46;97965.69;;;13.81;100.00
5595;BME280;1003;48.002;7.788;2023-08-06T04:27:16;97960.31;;;13.89;100.00
5595;BME280;1003;48.002;7.788;2023-08-06T04:29:43;97965.91;;;13.96;100.00
5595;BME280;1003;48.002;7.788;2023-08-06T04:32:12;97954.19;;;13.95;100.00
5595;BME280;1003;48.002;7.788;2023-08-06T04:34:39;97955.66;;;13.99;100.00
5595;BME280;1003;48.002;7.788;2023-08-06T04:37:06;97949.47;;;14.06;100.00
5595;BME280;1003;48.002;7.788;2023-08-06T04:39:34;97944.06;;;14.13;100.00
5595;BME280;1003;48.002;7.788;2023-08-06T04:42:01;97948.94;;;14.18;100.00
5595;BME280;1003;48.002;7.788;2023-08-06T04:44:29;97954.72;;;14.20;100.00
5595;BME280;1003;48.002;7.788;2023-08-06T04:46:56;97956.44;;;14.19;100.00
5595;BME280;1003;48.002;7.788;2023-08-06T04:49:24;97969.97;;;14.18;100.00
5595;BME280;1003;48.002;7.788;2023-08-06T04:51:51;97965.25;;;14.11;100.00
5595;BME280;1003;48.002;7.788;2023-08-06T04:54:18;97969.41;;;14.12;100.00
5595;BME280;1003;48.002;7.788;2023-08-06T04:56:45;97972.06;;;14.09;100.00
5595;BME280;1003;48.002;7.788;2023-08-06T04:59:12;97966.97;;;14.10;100.00
5595;BME280;1003;48.002;7.788;2023-08-06T05:01:43;97989.00;;;14.07;100.00
5595;BME280;1003;48.002;7.788;2023-08-06T05:04:10;97992.47;;;14.04;100.00
5595;BME280;1003;48.002;7.788;2023-08-06T05:06:37;97987.66;;;14.00;100.00
5595;BME280;1003;48.002;7.788;2023-08-06T05:09:06;97988.91;;;13.89;100.00
5595;BME280;1003;48.002;7.788;2023-08-06T05:11:33;97996.94;;;13.99;100.00
5595;BME280;1003;48.002;7.788;2023-08-06T05:14:00;98000.03;;;13.85;100.00
5595;BME280;1003;48.002;7.788;2023-08-06T05:16:27;98002.91;;;13.78;100.00
5595;BME280;1003;48.002;7.788;2023-08-06T05:18:55;98001.44;;;13.72;100.00
5595;BME280;1003;48.002;7.788;2023-08-06T05:21:22;98006.53;;;13.71;100.00
5595;BME280;1003;48.002;7.788;2023-08-06T05:23:49;98005.00;;;13.66;100.00
5595;BME280;1003;48.002;7.788;2023-08-06T05:26:16;98014.81;;;13.74;100.00
5595;BME280;1003;48.002;7.788;2023-08-06T05:28:45;98014.44;;;13.83;100.00
5595;BME280;1003;48.002;7.788;2023-08-06T05:31:12;98014.84;;;13.93;100.00
5595;BME280;1003;48.002;7.788;2023-08-06T05:33:40;98025.53;;;14.00;100.00
5595;BME280;1003;48.002;7.788;2023-08-06T05:36:08;98027.53;;;14.12;100.00
5595;BME280;1003;48.002;7.788;2023-08-06T05:38:35;98022.28;;;14.16;100.00
5595;BME280;1003;48.002;7.788;2023-08-06T05:41:02;98031.38;;;14.21;100.00
5595;BME280;1003;48.002;7.788;2023-08-06T05:43:29;98037.50;;;14.15;100.00
5595;BME280;1003;48.002;7.788;2023-08-06T05:45:56;98047.19;;;14.05;100.00
5595;BME280;1003;48.002;7.788;2023-08-06T05:48:23;98049.75;;;14.04;100.00
5595;BME280;1003;48.002;7.788;2023-08-06T05:50:51;98048.63;;;14.11;100.00
5595;BME280;1003;48.002;7.788;2023-08-06T05:53:20;98040.44;;;14.06;100.00
5595;BME280;1003;48.002;7.788;2023-08-06T05:55:47;98040.34;;;14.07;100.00
5595;BME280;1003;48.002;7.788;2023-08-06T05:58:14;98041.09;;;14.09;100.00
5595;BME280;1003;48.002;7.788;2023-08-06T06:00:41;98042.41;;;14.18;100.00
5595;BME280;1003;48.002;7.788;2023-08-06T06:03:09;98043.22;;;14.39;100.00
5595;BME280;1003;48.002;7.788;2023-08-06T06:05:38;98045.56;;;14.62;100.00
5595;BME280;1003;48.002;7.788;2023-08-06T06:08:05;98039.41;;;14.87;100.00
5595;BME280;1003;48.002;7.788;2023-08-06T06:10:35;98043.00;;;15.00;100.00
5595;BME280;1003;48.002;7.788;2023-08-06T06:13:02;98035.41;;;15.00;100.00
5595;BME280;1003;48.002;7.788;2023-08-06T06:15:29;98037.78;;;14.86;100.00
5595;BME280;1003;48.002;7.788;2023-08-06T06:17:56;98038.47;;;14.70;100.00
5595;BME280;1003;48.002;7.788;2023-08-06T06:20:23;98024.88;;;14.54;100.00
5595;BME280;1003;48.002;7.788;2023-08-06T06:22:50;98038.84;;;14.42;100.00
5595;BME280;1003;48.002;7.788;2023-08-06T06:25:18;98039.78;;;14.40;100.00
5595;BME280;1003;48.002;7.788;2023-08-06T06:27:46;98047.84;;;14.29;100.00
5595;BME280;1003;48.002;7.788;2023-08-06T06:30:16;98047.72;;;14.32;100.00
5595;BME280;1003;48.002;7.788;2023-08-06T06:32:43;98052.69;;;14.34;100.00
5595;BME280;1003;48.002;7.788;2023-08-06T06:35:10;98062.94;;;14.31;100.00
5595;BME280;1003;48.002;7.788;2023-08-06T06:37:37;98072.72;;;14.38;100.00
5595;BME280;1003;48.002;7.788;2023-08-06T06:40:05;98073.47;;;14.40;100.00
5595;BME280;1003;48.002;7.788;2023-08-06T06:42:32;98074.75;;;14.30;100.00
5595;BME280;1003;48.002;7.788;2023-08-06T06:45:01;98068.31;;;14.23;100.00
5595;BME280;1003;48.002;7.788;2023-08-06T06:47:28;98083.88;;;14.14;100.00
5595;BME280;1003;48.002;7.788;2023-08-06T06:49:55;98065.44;;;14.12;100.00
5595;BME280;1003;48.002;7.788;2023-08-06T06:52:22;98077.31;;;14.10;100.00
5595;BME280;1003;48.002;7.788;2023-08-06T06:54:49;98071.38;;;14.11;100.00
5595;BME280;1003;48.002;7.788;2023-08-06T06:57:16;98079.25;;;14.24;100.00
5595;BME280;1003;48.002;7.788;2023-08-06T06:59:43;98077.81;;;14.18;100.00
5595;BME280;1003;48.002;7.788;2023-08-06T07:02:11;98080.97;;;14.23;100.00
5595;BME280;1003;48.002;7.788;2023-08-06T07:04:38;98075.19;;;14.19;100.00
5595;BME280;1003;48.002;7.788;2023-08-06T07:07:05;98070.31;;;14.35;100.00
5595;BME280;1003;48.002;7.788;2023-08-06T07:09:32;98084.34;;;14.42;100.00
5595;BME280;1003;48.002;7.788;2023-08-06T07:11:59;98074.75;;;14.51;100.00
5595;BME280;1003;48.002;7.788;2023-08-06T07:14:28;98071.41;;;14.50;100.00
5595;BME280;1003;48.002;7.788;2023-08-06T07:16:55;98075.63;;;14.50;100.00
5595;BME280;1003;48.002;7.788;2023-08-06T07:19:24;98071.66;;;14.63;100.00
5595;BME280;1003;48.002;7.788;2023-08-06T07:21:51;98079.41;;;14.60;100.00
5595;BME280;1003;48.002;7.788;2023-08-06T07:24:18;98097.25;;;14.76;100.00
5595;BME280;1003;48.002;7.788;2023-08-06T07:26:45;98093.56;;;14.64;100.00
5595;BME280;1003;48.002;7.788;2023-08-06T07:29:12;98097.25;;;14.76;100.00
5595;BME280;1003;48.002;7.788;2023-08-06T07:31:45;98099.34;;;14.85;100.00
5595;BME280;1003;48.002;7.788;2023-08-06T07:34:12;98106.69;;;14.91;100.00
5595;BME280;1003;48.002;7.788;2023-08-06T07:36:45;98109.25;;;14.89;100.00
5595;BME280;1003;48.002;7.788;2023-08-06T07:39:15;98107.22;;;14.98;100.00
5595;BME280;1003;48.002;7.788;2023-08-06T07:41:48;98119.94;;;14.96;100.00
5595;BME280;1003;48.002;7.788;2023-08-06T07:44:15;98126.50;;;15.00;100.00
5595;BME280;1003;48.002;7.788;2023-08-06T07:46:42;98136.19;;;14.90;100.00
5595;BME280;1003;48.002;7.788;2023-08-06T07:49:10;98138.94;;;15.05;100.00
5595;BME280;1003;48.002;7.788;2023-08-06T07:51:37;98133.81;;;15.25;100.00
5595;BME280;1003;48.002;7.788;2023-08-06T07:54:06;98138.16;;;15.40;100.00
5595;BME280;1003;48.002;7.788;2023-08-06T07:56:33;98143.16;;;15.42;100.00
5595;BME280;1003;48.002;7.788;2023-08-06T07:59:01;98153.06;;;15.46;100.00
5595;BME280;1003;48.002;7.788;2023-08-06T08:01:28;98161.28;;;15.52;100.00
5595;BME280;1003;48.002;7.788;2023-08-06T08:03:55;98153.53;;;15.55;100.00
5595;BME280;1003;48.002;7.788;2023-08-06T08:06:22;98155.59;;;15.46;100.00
5595;BME280;1003;48.002;7.788;2023-08-06T08:08:49;98163.03;;;15.49;100.00
5595;BME280;1003;48.002;7.788;2023-08-06T08:11:20;98158.44;;;15.58;100.00
5595;BME280;1003;48.002;7.788;2023-08-06T08:13:48;98162.19;;;15.51;100.00
5595;BME280;1003;48.002;7.788;2023-08-06T08:16:15;98161.41;;;15.48;100.00
5595;BME280;1003;48.002;7.788;2023-08-06T08:18:42;98166.59;;;15.64;100.00
5595;BME280;1003;48.002;7.788;2023-08-06T08:21:09;98166.56;;;15.66;100.00
5595;BME280;1003;48.002;7.788;2023-08-06T08:23:36;98169.91;;;15.66;100.00
5595;BME280;1003;48.002;7.788;2023-08-06T08:26:04;98170.63;;;15.49;100.00
5595;BME280;1003;48.002;7.788;2023-08-06T08:28:33;98181.94;;;15.42;100.00
5595;BME280;1003;48.002;7.788;2023-08-06T08:30:59;98175.47;;;15.37;100.00
5595;BME280;1003;48.002;7.788;2023-08-06T08:33:27;98174.72;;;15.35;100.00
5595;BME280;1003;48.002;7.788;2023-08-06T08:35:54;98188.34;;;15.13;100.00
5595;BME280;1003;48.002;7.788;2023-08-06T08:38:21;98184.50;;;15.05;100.00
5595;BME280;1003;48.002;7.788;2023-08-06T08:40:52;98188.88;;;15.20;100.00
5595;BME280;1003;48.002;7.788;2023-08-06T08:43:23;98179.69;;;15.36;100.00
5595;BME280;1003;48.002;7.788;2023-08-06T08:45:54;98171.81;;;15.61;100.00
5595;BME280;1003;48.002;7.788;2023-08-06T08:48:25;98170.75;;;15.84;100.00
5595;BME280;1003;48.002;7.788;2023-08-06T08:50:52;98179.75;;;16.24;100.00
5595;BME280;1003;48.002;7.788;2023-08-06T08:53:21;98190.06;;;16.21;100.00
5595;BME280;1003;48.002;7.788;2023-08-06T08:55:49;98192.72;;;16.36;100.00
5595;BME280;1003;48.002;7.788;2023-08-06T08:58:16;98208.78;;;16.36;100.00
5595;BME280;1003;48.002;7.788;2023-08-06T09:00:46;98188.66;;;16.33;100.00
5595;BME280;1003;48.002;7.788;2023-08-06T09:03:16;98194.47;;;16.00;100.00
5595;BME280;1003;48.002;7.788;2023-08-06T09:05:45;98208.56;;;16.06;100.00
5595;BME280;1003;48.002;7.788;2023-08-06T09:08:18;98207.56;;;15.91;100.00
5595;BME280;1003;48.002;7.788;2023-08-06T09:10:49;98207.13;;;16.00;100.00
5595;BME280;1003;48.002;7.788;2023-08-06T09:13:17;98215.75;;;15.96;100.00
5595;BME280;1003;48.002;7.788;2023-08-06T09:15:45;98226.81;;;15.95;100.00
5595;BME280;1003;48.002;7.788;2023-08-06T09:18:15;98227.50;;;15.99;100.00
5595;BME280;1003;48.002;7.788;2023-08-06T09:20:42;98230.22;;;15.94;100.00
5595;BME280;1003;48.002;7.788;2023-08-06T09:23:11;98237.25;;;16.07;100.00
5595;BME280;1003;48.002;7.788;2023-08-06T09:25:40;98251.25;;;16.14;100.00
5595;BME280;1003;48.002;7.788;2023-08-06T09:28:07;98245.47;;;16.12;100.00
5595;BME280;1003;48.002;7.788;2023-08-06T09:30:36;98254.19;;;15.87;100.00
5595;BME280;1003;48.002;7.788;2023-08-06T09:33:08;98255.59;;;16.12;100.00
5595;BME280;1003;48.002;7.788;2023-08-06T09:35:39;98261.56;;;16.11;100.00
5595;BME280;1003;48.002;7.788;2023-08-06T09:38:07;98275.56;;;16.00;100.00
5595;BME280;1003;48.002;7.788;2023-08-06T09:40:36;98274.13;;;15.95;100.00
5595;BME280;1003;48.002;7.788;2023-08-06T09:43:03;98270.16;;;15.89;100.00
5595;BME280;1003;48.002;7.788;2023-08-06T09:45:32;98269.03;;;15.78;100.00
5595;BME280;1003;48.002;7.788;2023-08-06T09:48:03;98263.16;;;15.77;100.00
5595;BME280;1003;48.002;7.788;2023-08-06T09:50:32;98269.28;;;15.90;100.00
5595;BME280;1003;48.002;7.788;2023-08-06T09:53:03;98268.38;;;15.91;100.00
5595;BME280;1003;48.002;7.788;2023-08-06T09:55:32;98262.81;;;16.02;100.00
5595;BME280;1003;48.002;7.788;2023-08-06T09:58:00;98263.78;;;15.99;100.00
5595;BME280;1003;48.002;7.788;2023-08-06T10:00:31;98275.03;;;15.94;100.00
5595;BME280;1003;48.002;7.788;2023-08-06T10:03:01;98267.66;;;16.07;100.00
5595;BME280;1003;48.002;7.788;2023-08-06T10:05:31;98267.06;;;16.01;100.00
5595;BME280;1003;48.002;7.788;2023-08-06T10:08:02;98277.41;;;15.97;100.00
5595;BME280;1003;48.002;7.788;2023-08-06T10:10:31;98282.25;;;16.01;100.00
5595;BME280;1003;48.002;7.788;2023-08-06T10:13:00;98285.28;;;16.10;100.00
5595;BME280;1003;48.002;7.788;2023-08-06T10:15:31;98280.13;;;16.11;100.00
5595;BME280;1003;48.002;7.788;2023-08-06T10:18:01;98291.94;;;15.93;100.00
5595;BME280;1003;48.002;7.788;2023-08-06T10:20:34;98295.81;;;15.83;100.00
5595;BME280;1003;48.002;7.788;2023-08-06T10:23:04;98297.44;;;15.65;100.00
5595;BME280;1003;48.002;7.788;2023-08-06T10:25:33;98294.69;;;15.51;100.00
5595;BME280;1003;48.002;7.788;2023-08-06T10:28:07;98297.22;;;15.51;100.00
5595;BME280;1003;48.002;7.788;2023-08-06T10:30:42;98289.53;;;15.53;100.00
5595;BME280;1003;48.002;7.788;2023-08-06T10:33:10;98278.59;;;15.52;100.00
5595;BME280;1003;48.002;7.788;2023-08-06T10:35:40;98289.13;;;15.43;100.00
5595;BME280;1003;48.002;7.788;2023-08-06T10:38:12;98284.59;;;15.49;100.00
5595;BME280;1003;48.002;7.788;2023-08-06T10:40:41;98283.72;;;15.51;100.00
5595;BME280;1003;48.002;7.788;2023-08-06T10:43:26;98283.78;;;15.49;100.00
5595;BME280;1003;48.002;7.788;2023-08-06T10:45:57;98286.38;;;15.47;100.00
5595;BME280;1003;48.002;7.788;2023-08-06T10:48:35;98277.97;;;15.47;100.00
5595;BME280;1003;48.002;7.788;2023-08-06T10:51:07;98287.34;;;15.45;100.00
5595;BME280;1003;48.002;7.788;2023-08-06T10:53:38;98283.44;;;15.38;100.00
5595;BME280;1003;48.002;7.788;2023-08-06T10:56:12;98293.28;;;15.44;100.00
5595;BME280;1003;48.002;7.788;2023-08-06T10:58:43;98297.25;;;15.49;100.00
5595;BME280;1003;48.002;7.788;2023-08-06T11:01:11;98283.31;;;15.60;100.00
5595;BME280;1003;48.002;7.788;2023-08-06T11:03:39;98290.06;;;15.59;100.00
5595;BME280;1003;48.002;7.788;2023-08-06T11:06:08;98297.41;;;15.46;100.00
5595;BME280;1003;48.002;7.788;2023-08-06T11:08:40;98314.28;;;15.27;100.00
5595;BME280;1003;48.002;7.788;2023-08-06T11:11:11;98319.25;;;15.10;100.00
5595;BME280;1003;48.002;7.788;2023-08-06T11:13:39;98313.91;;;15.16;100.00
5595;BME280;1003;48.002;7.788;2023-08-06T11:16:09;98315.31;;;15.23;100.00
5595;BME280;1003;48.002;7.788;2023-08-06T11:18:37;98321.13;;;15.25;100.00
5595;BME280;1003;48.002;7.788;2023-08-06T11:21:04;98311.69;;;15.29;100.00
5595;BME280;1003;48.002;7.788;2023-08-06T11:23:31;98315.41;;;15.59;100.00
5595;BME280;1003;48.002;7.788;2023-08-06T11:26:03;98322.75;;;15.65;100.00
5595;BME280;1003;48.002;7.788;2023-08-06T11:28:30;98317.84;;;15.81;100.00
5595;BME280;1003;48.002;7.788;2023-08-06T11:30:58;98325.56;;;15.97;100.00
5595;BME280;1003;48.002;7.788;2023-08-06T11:33:29;98319.78;;;16.12;100.00
5595;BME280;1003;48.002;7.788;2023-08-06T11:35:59;98319.72;;;16.14;100.00
5595;BME280;1003;48.002;7.788;2023-08-06T11:38:27;98325.69;;;16.13;100.00
5595;BME280;1003;48.002;7.788;2023-08-06T11:40:55;98318.75;;;16.16;100.00
5595;BME280;1003;48.002;7.788;2023-08-06T11:43:23;98324.13;;;16.10;100.00
5595;BME280;1003;48.002;7.788;2023-08-06T11:45:51;98331.53;;;16.15;100.00
5595;BME280;1003;48.002;7.788;2023-08-06T11:48:20;98328.81;;;16.18;100.00
5595;BME280;1003;48.002;7.788;2023-08-06T11:50:47;98329.50;;;16.21;100.00
5595;BME280;1003;48.002;7.788;2023-08-06T11:53:16;98321.03;;;16.40;100.00
5595;BME280;1003;48.002;7.788;2023-08-06T11:55:44;98317.09;;;16.69;100.00
5595;BME280;1003;48.002;7.788;2023-08-06T11:58:11;98321.50;;;17.17;100.00
5595;BME280;1003;48.002;7.788;2023-08-06T12:00:46;98320.16;;;17.59;100.00
5595;BME280;1003;48.002;7.788;2023-08-06T12:03:13;98341.00;;;17.66;100.00
5595;BME280;1003;48.002;7.788;2023-08-06T12:05:41;98348.97;;;17.42;100.00
5595;BME280;1003;48.002;7.788;2023-08-06T12:08:09;98374.88;;;17.16;100.00
5595;BME280;1003;48.002;7.788;2023-08-06T12:10:36;98373.69;;;16.88;100.00
5595;BME280;1003;48.002;7.788;2023-08-06T12:13:03;98380.28;;;16.75;100.00
5595;BME280;1003;48.002;7.788;2023-08-06T12:15:30;98382.25;;;16.68;100.00
5595;BME280;1003;48.002;7.788;2023-08-06T12:17:59;98378.63;;;16.91;100.00
5595;BME280;1003;48.002;7.788;2023-08-06T12:20:28;98375.78;;;17.15;100.00
5595;BME280;1003;48.002;7.788;2023-08-06T12:22:56;98376.25;;;17.72;100.00
5595;BME280;1003;48.002;7.788;2023-08-06T12:25:23;98369.09;;;18.12;100.00
5595;BME280;1003;48.002;7.788;2023-08-06T12:27:50;98392.28;;;18.69;100.00
5595;BME280;1003;48.002;7.788;2023-08-06T12:30:17;98411.25;;;18.79;100.00
5595;BME280;1003;48.002;7.788;2023-08-06T12:32:44;98436.19;;;18.72;100.00
5595;BME280;1003;48.002;7.788;2023-08-06T12:35:12;98449.53;;;18.46;100.00
5595;BME280;1003;48.002;7.788;2023-08-06T12:37:42;98396.31;;;17.78;100.00
5595;BME280;1003;48.002;7.788;2023-08-06T12:40:11;98310.78;;;17.77;100.00
5595;BME280;1003;48.002;7.788;2023-08-06T12:42:38;98312.00;;;17.86;100.00
5595;BME280;1003;48.002;7.788;2023-08-06T12:45:06;98333.97;;;18.02;100.00
5595;BME280;1003;48.002;7.788;2023-08-06T12:47:33;98358.19;;;17.78;100.00
5595;BME280;1003;48.002;7.788;2023-08-06T12:50:00;98393.00;;;17.25;100.00
5595;BME280;1003;48.002;7.788;2023-08-06T12:52:29;98381.66;;;17.32;100.00
5595;BME280;1003;48.002;7.788;2023-08-06T12:54:56;98402.47;;;17.56;100.00
5595;BME280;1003;48.002;7.788;2023-08-06T12:57:23;98416.06;;;17.73;100.00
5595;BME280;1003;48.002;7.788;2023-08-06T12:59:50;98426.91;;;17.76;100.00
5595;BME280;1003;48.002;7.788;2023-08-06T13:02:19;98428.22;;;17.99;100.00
5595;BME280;1003;48.002;7.788;2023-08-06T13:04:46;98439.47;;;18.11;100.00
5595;BME280;1003;48.002;7.788;2023-08-06T13:07:13;98453.44;;;18.20;100.00
5595;BME280;1003;48.002;7.788;2023-08-06T13:09:42;98462.78;;;18.67;100.00
5595;BME280;1003;48.002;7.788;2023-08-06T13:12:09;98497.50;;;18.99;100.00
5595;BME280;1003;48.002;7.788;2023-08-06T13:14:36;98527.63;;;19.23;100.00
5595;BME280;1003;48.002;7.788;2023-08-06T13:17:03;98558.09;;;19.24;100.00